Startpagina
METAR-TAF:

METAR-TAF

Vliegvelden :

Internationale Luchthaven Oostende-Brugge

Oostende, België

breedte: 51-12N, lengte: 002-52E, hoogte: 4 m

Actueel weer

Dit bericht is 24 minuten geleden gemaakt, om 21:50 UTC
Wind 8 kt uit het westzuidwesten
Temperatuur 19°C
Vochtigheid 56%
Druk 1014 hPa
Zicht 10 km of meer
geen wolken onder 1500 m en geen cumulonimbus

METAR: EBOS 162150Z 24008KT CAVOK 19/10 Q1014 NOSIG

Tijdstip: 00:14 (22:14 UTC)

Verwachting

Dit bericht is 5 uur en het 14 minuten geleden gemaakt, om 17:00 UTC
Verwachting geldig van 16 om 18 UTC tot 17 om 24 UTC
Wind 10 kt uit het zuidwesten
Zicht 10 km of meer
geen wolken onder 1500 m en geen cumulonimbus
Tijdelijke
van 17 om 04 UTC tot 17 om 06 UTC
Gebroken wolken op 1000 ft
Tijdelijke
van 17 om 12 UTC tot 17 om 18 UTC
Wind 12 kt uit het westnoordwesten

TAF: EBOS 161700Z 1618/1724 23010KT CAVOK TEMPO 1704/1706 BKN010 TEMPO 1712/1718 29012KT

Waarnemingen en weersverwachtingen van meer dan 4000 vliegvelden (METAR en TAF).

De beschikbare stations zijn de gele en rode punten op de kaart.

Ga met uw muis naar het station om de naam te zien.

Klik dan om waarnemingen en weersverwachtingen te zien.

kaart wijzigen: klik op de groene knoppen met een zwart kruis om in te zoomen, op de groene knop met een streepje om uit te zoomen of op de groene pijlen voor aangrenzende kaarten.


METAR-TAF: